Time;durP1;ratioP1;P1;durP2;ratioP2;P2;SDS_P1;SDS_P2;PMS_P1;PMS_P2;Temp;Humidity;BMP_temperature;BMP_pressure;BME280_temperature;BME280_humidity;BME280_pressure;Samples;Min_cycle;Max_cycle;Signal;HPM_P1;HPM_P2
2021/06/21 00:01:49;;;;;;;9.55;6.55;;;;;;;17.00;91.55;94275.09;1600925;88;21053;-58
2021/06/21 00:04:16;;;;;;;9.53;6.33;;;;;;;17.02;91.32;94271.96;1599001;88;21615;-57
2021/06/21 00:06:45;;;;;;;9.88;5.87;;;;;;;17.05;90.99;94267.41;1604136;88;21017;-56
2021/06/21 00:09:12;;;;;;;7.40;6.08;;;;;;;17.06;91.16;94268.95;1606427;88;21091;-57
2021/06/21 00:11:40;;;;;;;11.43;8.00;;;;;;;17.08;90.93;94264.39;1601309;89;21012;-56
2021/06/21 00:14:07;;;;;;;7.97;5.60;;;;;;;17.11;90.54;94265.42;1606573;89;21760;-57
2021/06/21 00:16:35;;;;;;;12.23;5.95;;;;;;;17.09;90.18;94261.74;1600614;88;21051;-57
2021/06/21 00:19:04;;;;;;;10.70;7.80;;;;;;;17.04;89.90;94265.88;1611731;88;21031;-57
2021/06/21 00:21:32;;;;;;;14.60;6.80;;;;;;;16.98;89.93;94268.67;1585980;89;21001;-57
2021/06/21 00:24:01;;;;;;;15.85;7.40;;;;;;;16.91;89.83;94268.38;1586019;89;21028;-57
2021/06/21 00:26:29;;;;;;;8.40;6.95;;;;;;;16.79;90.00;94268.97;1589607;89;21209;-57
2021/06/21 00:28:57;;;;;;;10.32;6.65;;;;;;;16.72;90.01;94263.86;1599726;88;21067;-57
2021/06/21 00:31:24;;;;;;;9.28;6.53;;;;;;;16.70;90.25;94258.70;1595078;89;21267;-56
2021/06/21 00:33:50;;;;;;;11.88;5.80;;;;;;;16.71;90.72;94260.22;1598692;88;21449;-57
2021/06/21 00:36:17;;;;;;;9.70;6.30;;;;;;;16.73;90.49;94257.70;1598840;89;21190;-56
2021/06/21 00:38:45;;;;;;;8.70;5.40;;;;;;;16.72;90.17;94262.48;1597969;89;21065;-57
2021/06/21 00:41:11;;;;;;;9.00;5.37;;;;;;;16.71;89.70;94257.44;1602223;88;21154;-57
2021/06/21 00:43:38;;;;;;;5.92;4.97;;;;;;;16.69;89.70;94267.64;1595948;89;21170;-57
2021/06/21 00:46:04;;;;;;;14.93;7.25;;;;;;;16.70;89.81;94261.47;1607535;88;21511;-56
2021/06/21 00:48:31;;;;;;;14.98;7.45;;;;;;;16.65;89.56;94264.34;1603450;89;21097;-57
2021/06/21 00:50:58;;;;;;;6.78;6.00;;;;;;;16.59;89.42;94265.58;1604215;89;20997;-56
2021/06/21 00:53:25;;;;;;;7.05;5.35;;;;;;;16.48;89.37;94265.50;1595406;89;21101;-57
2021/06/21 00:55:52;;;;;;;14.38;6.53;;;;;;;16.38;89.51;94267.72;1589746;88;22347;-57
2021/06/21 00:58:19;;;;;;;11.63;7.60;;;;;;;16.31;89.97;94266.00;1589093;89;21497;-57
2021/06/21 01:00:46;;;;;;;16.45;7.60;;;;;;;16.27;90.33;94262.70;1579679;89;21124;-57
2021/06/21 01:03:12;;;;;;;15.60;7.28;;;;;;;16.25;90.73;94262.44;1587289;89;21092;-57
2021/06/21 01:05:39;;;;;;;14.15;6.58;;;;;;;16.21;90.55;94259.13;1587866;89;21101;-56
2021/06/21 01:08:07;;;;;;;10.08;7.00;;;;;;;16.15;90.60;94252.02;1591439;89;21056;-57
2021/06/21 01:10:37;;;;;;;9.18;7.20;;;;;;;16.09;90.76;94249.20;1594538;89;21129;-57
2021/06/21 01:13:33;;;;;;;9.80;6.17;;;;;;;16.06;91.02;94252.22;1591740;89;21156;-57
2021/06/21 01:16:14;;;;;;;11.48;6.25;;;;;;;15.99;91.21;94256.21;1588739;89;21156;-57
2021/06/21 01:19:24;;;;;;;7.33;5.85;;;;;;;15.94;91.40;94261.71;1595947;89;21056;-57
2021/06/21 01:22:46;;;;;;;9.28;6.28;;;;;;;15.89;91.64;94257.63;1598113;89;21150;-57
2021/06/21 01:25:30;;;;;;;8.58;6.53;;;;;;;15.86;91.53;94264.17;1541214;91;21110;-57
2021/06/21 01:28:10;;;;;;;19.95;6.95;;;;;;;15.83;91.84;94254.67;1589345;89;21187;-56
2021/06/21 01:30:42;;;;;;;21.37;7.25;;;;;;;15.75;91.85;94248.81;1588301;89;20989;-56
2021/06/21 01:33:09;;;;;;;10.25;6.03;;;;;;;15.67;92.15;94244.98;1591601;89;21163;-56
2021/06/21 01:35:43;;;;;;;9.63;6.40;;;;;;;15.64;92.58;94239.03;1565349;89;21212;-56
2021/06/21 01:38:31;;;;;;;19.90;12.80;;;;;;;15.67;93.11;94248.36;1559187;90;21003;-57
2021/06/21 01:41:01;;;;;;;6.78;6.12;;;;;;;15.69;93.30;94234.15;1597171;89;21105;-57
2021/06/21 01:43:32;;;;;;;6.83;6.12;;;;;;;15.75;93.70;94238.36;1592612;88;21084;-56
2021/06/21 01:46:00;;;;;;;8.00;4.70;;;;;;;15.77;93.23;94242.14;1587483;89;21152;-56
2021/06/21 01:48:27;;;;;;;5.83;5.30;;;;;;;15.79;92.72;94241.05;1593020;89;21196;-56
2021/06/21 01:50:56;;;;;;;8.13;4.55;;;;;;;15.83;92.14;94244.36;1591828;89;21119;-56
2021/06/21 01:53:24;;;;;;;6.35;5.33;;;;;;;15.81;91.77;94245.48;1589634;88;21061;-56
2021/06/21 01:56:01;;;;;;;8.20;6.03;;;;;;;15.79;91.59;94242.44;1578231;89;20992;-57
2021/06/21 01:58:32;;;;;;;4.55;4.15;;;;;;;15.80;92.05;94240.41;1595029;88;21136;-57
2021/06/21 02:01:00;;;;;;;8.03;5.00;;;;;;;15.84;91.87;94241.72;1600852;89;21141;-57
2021/06/21 02:03:27;;;;;;;5.87;5.25;;;;;;;15.84;91.66;94241.72;1600407;88;21482;-57
2021/06/21 02:05:57;;;;;;;9.70;5.42;;;;;;;15.89;91.55;94249.31;1570967;89;21040;-56
2021/06/21 02:08:24;;;;;;;7.25;5.17;;;;;;;15.92;91.84;94253.13;1594874;88;21559;-57
2021/06/21 02:10:52;;;;;;;6.55;5.50;;;;;;;15.97;91.52;94250.40;1585228;88;21122;-55
2021/06/21 02:13:21;;;;;;;9.45;5.55;;;;;;;16.00;91.37;94243.86;1582731;89;21707;-56
2021/06/21 02:15:49;;;;;;;7.92;4.67;;;;;;;16.03;91.12;94241.48;1590885;89;21085;-56
2021/06/21 02:18:20;;;;;;;6.83;5.40;;;;;;;16.07;90.91;94242.00;1588917;88;21642;-55
2021/06/21 02:20:48;;;;;;;8.80;5.37;;;;;;;16.08;90.93;94240.75;1591567;88;21747;-56
2021/06/21 02:23:16;;;;;;;4.85;4.10;;;;;;;16.14;91.05;94247.72;1589318;89;21001;-56
2021/06/21 02:25:44;;;;;;;8.30;5.95;;;;;;;16.20;90.29;94242.35;1589193;89;21184;-56
2021/06/21 02:28:12;;;;;;;9.48;8.25;;;;;;;16.18;89.74;94241.31;1581237;88;20988;-56
2021/06/21 02:30:39;;;;;;;14.10;10.15;;;;;;;16.11;89.59;94243.91;1594424;89;21009;-57
2021/06/21 02:33:06;;;;;;;9.03;5.50;;;;;;;16.04;89.39;94245.77;1564886;89;21069;-57
2021/06/21 02:35:33;;;;;;;7.47;5.72;;;;;;;15.97;89.66;94246.84;1591866;88;21096;-58
2021/06/21 02:38:00;;;;;;;7.25;5.25;;;;;;;15.88;89.61;94241.50;1597056;88;21231;-56
2021/06/21 02:40:27;;;;;;;9.05;5.10;;;;;;;15.84;89.83;94243.10;1602611;88;20997;-56
2021/06/21 02:42:54;;;;;;;5.15;4.67;;;;;;;15.84;89.88;94245.87;1608450;89;21097;-56
2021/06/21 02:45:20;;;;;;;5.62;5.05;;;;;;;15.84;89.98;94245.87;1607423;89;21030;-56
2021/06/21 02:47:47;;;;;;;10.10;5.00;;;;;;;15.82;90.12;94245.61;1599332;89;21012;-57
2021/06/21 02:50:14;;;;;;;6.10;5.40;;;;;;;15.77;90.28;94246.30;1582784;88;21254;-56
2021/06/21 02:53:00;;;;;;;6.97;4.15;;;;;;;15.74;90.46;94247.30;1590225;89;21457;-56
2021/06/21 02:56:03;;;;;;;6.28;4.40;;;;;;;15.71;90.52;94253.83;1587365;89;21508;-57
2021/06/21 02:58:38;;;;;;;5.47;4.97;;;;;;;15.64;90.72;94251.52;1587773;89;21510;-58
2021/06/21 03:01:07;;;;;;;8.58;4.90;;;;;;;15.62;91.17;94259.56;1590505;89;21212;-56
2021/06/21 03:03:49;;;;;;;5.75;4.35;;;;;;;15.64;91.49;94247.35;1599868;89;21224;-56
2021/06/21 03:06:16;;;;;;;8.45;4.47;;;;;;;15.70;91.21;94262.02;1586474;89;21484;-58
2021/06/21 03:08:43;;;;;;;4.90;4.40;;;;;;;15.74;90.95;94253.48;1603118;88;21039;-57
2021/06/21 03:11:10;;;;;;;8.13;4.33;;;;;;;15.78;90.99;94258.95;1586720;89;21202;-57
2021/06/21 03:13:37;;;;;;;5.00;3.98;;;;;;;15.83;91.08;94247.74;1561399;89;21011;-56
2021/06/21 03:16:05;;;;;;;6.35;4.80;;;;;;;15.83;90.95;94251.30;1592139;88;21266;-56
2021/06/21 03:18:32;;;;;;;11.45;4.62;;;;;;;15.84;90.94;94247.27;1587351;89;22172;-57
2021/06/21 03:20:59;;;;;;;6.60;4.65;;;;;;;15.89;90.75;94251.34;1565040;89;21178;-56
2021/06/21 03:23:28;;;;;;;10.43;4.62;;;;;;;15.92;90.81;94248.32;1592541;89;21112;-57
2021/06/21 03:25:59;;;;;;;5.25;4.75;;;;;;;15.98;90.82;94248.36;1589964;89;20988;-56
2021/06/21 03:28:27;;;;;;;5.47;4.90;;;;;;;16.05;90.60;94245.91;1594432;89;21607;-56
2021/06/21 03:30:58;;;;;;;5.97;4.50;;;;;;;16.13;90.05;94242.05;1598349;89;21068;-56
2021/06/21 03:33:25;;;;;;;6.97;4.30;;;;;;;16.14;89.92;94244.34;1595721;89;21089;-57
2021/06/21 03:35:52;;;;;;;6.75;4.42;;;;;;;16.16;89.90;94241.83;1579644;89;21113;-57
2021/06/21 03:38:28;;;;;;;7.60;5.35;;;;;;;16.20;89.70;94242.35;1604032;88;20996;-58
2021/06/21 03:40:58;;;;;;;7.97;4.83;;;;;;;16.21;89.86;94245.87;1589499;88;21246;-57
2021/06/21 03:43:25;;;;;;;6.58;4.15;;;;;;;16.26;89.72;94246.55;1608786;88;21048;-57
2021/06/21 03:45:56;;;;;;;7.33;4.10;;;;;;;16.31;89.94;94250.11;1601684;89;21130;-57
2021/06/21 03:48:23;;;;;;;4.95;4.20;;;;;;;16.37;89.99;94248.80;1595675;88;21201;-58
2021/06/21 03:50:50;;;;;;;6.53;4.33;;;;;;;16.42;90.00;94245.28;1599860;89;20988;-57
2021/06/21 03:53:18;;;;;;;14.58;6.03;;;;;;;16.45;89.75;94244.28;1597436;89;21248;-57
2021/06/21 03:55:45;;;;;;;7.40;4.00;;;;;;;16.46;89.56;94245.19;1599175;89;21444;-57
2021/06/21 03:58:12;;;;;;;6.80;5.17;;;;;;;16.48;89.15;94239.13;1589441;89;21001;-57
2021/06/21 04:00:39;;;;;;;9.78;4.47;;;;;;;16.52;89.09;94238.28;1589170;89;21192;-57
2021/06/21 04:03:06;;;;;;;7.15;5.10;;;;;;;16.55;88.78;94244.97;1590458;89;21116;-57
2021/06/21 04:05:36;;;;;;;7.87;4.08;;;;;;;16.58;88.21;94248.78;1597381;88;21303;-57
2021/06/21 04:08:07;;;;;;;7.85;4.72;;;;;;;16.60;88.06;94246.27;1602603;89;21064;-57
2021/06/21 04:10:35;;;;;;;5.87;4.50;;;;;;;16.63;87.85;94249.42;1607212;88;21102;-58
2021/06/21 04:13:04;;;;;;;10.20;4.40;;;;;;;16.65;87.59;94246.91;1593356;88;21076;-57
2021/06/21 04:15:32;;;;;;;7.58;4.58;;;;;;;16.63;87.58;94250.81;1586837;89;21628;-57
2021/06/21 04:18:02;;;;;;;9.98;5.45;;;;;;;16.61;87.65;94249.17;1582173;89;21649;-56
2021/06/21 04:20:31;;;;;;;5.25;4.75;;;;;;;16.60;87.85;94258.14;1593473;89;21117;-58
2021/06/21 04:22:58;;;;;;;7.12;4.85;;;;;;;16.59;87.60;94255.23;1591757;89;21206;-56
2021/06/21 04:25:25;;;;;;;5.87;4.85;;;;;;;16.55;87.73;94254.69;1591630;89;21114;-60
2021/06/21 04:27:52;;;;;;;8.23;5.72;;;;;;;16.55;88.05;94254.69;1587095;89;21050;-58
2021/06/21 04:30:22;;;;;;;11.05;5.95;;;;;;;16.58;88.25;94259.89;1587469;89;21214;-58
2021/06/21 04:32:51;;;;;;;6.78;5.25;;;;;;;16.59;88.49;94260.02;1600006;88;21069;-57
2021/06/21 04:35:20;;;;;;;11.78;5.10;;;;;;;16.64;88.55;94266.22;1600100;89;21286;-57
2021/06/21 04:37:47;;;;;;;12.78;4.90;;;;;;;16.69;88.50;94268.29;1590819;89;21120;-58
2021/06/21 04:40:17;;;;;;;17.65;10.45;;;;;;;16.74;88.67;94270.33;1600488;89;20989;-58
2021/06/21 04:42:43;;;;;;;11.05;8.18;;;;;;;16.82;88.90;94265.80;1606448;89;21898;-58
2021/06/21 04:45:11;;;;;;;7.10;5.75;;;;;;;16.91;89.16;94262.83;1595387;88;21597;-58
2021/06/21 04:47:38;;;;;;;6.95;5.08;;;;;;;16.99;88.98;94261.08;1595758;88;21018;-58
2021/06/21 04:50:09;;;;;;;4.37;3.75;;;;;;;17.07;88.60;94267.69;1590267;88;21095;-57
2021/06/21 04:52:37;;;;;;;6.58;3.67;;;;;;;17.16;87.72;94261.89;1602086;89;21068;-58
2021/06/21 04:55:06;;;;;;;4.58;4.15;;;;;;;17.22;87.12;94266.83;1606691;89;21787;-58
2021/06/21 04:57:33;;;;;;;11.15;3.77;;;;;;;17.27;86.79;94259.16;1601538;89;21124;-58
2021/06/21 05:00:11;;;;;;;10.23;3.45;;;;;;;17.31;86.28;94265.23;1587025;89;21539;-58
2021/06/21 05:02:39;;;;;;;6.78;2.77;;;;;;;17.32;85.89;94257.75;1592475;88;21564;-55
2021/06/21 05:05:08;;;;;;;5.28;3.10;;;;;;;17.37;85.24;94263.23;1568059;89;21043;-57
2021/06/21 05:07:35;;;;;;;6.72;3.50;;;;;;;17.37;84.97;94253.50;1589250;89;21158;-57
2021/06/21 05:10:05;;;;;;;3.55;3.25;;;;;;;17.39;84.82;94260.71;1587472;88;21469;-56
2021/06/21 05:12:32;;;;;;;6.62;3.67;;;;;;;17.40;84.38;94259.45;1592356;89;21070;-56
2021/06/21 05:14:59;;;;;;;5.40;4.85;;;;;;;17.38;83.96;94255.02;1594369;88;21024;-57
2021/06/21 05:17:27;;;;;;;3.87;3.33;;;;;;;17.40;84.01;94256.67;1599639;88;21092;-58
2021/06/21 05:19:53;;;;;;;4.05;3.12;;;;;;;17.43;84.02;94257.08;1596423;89;22238;-58
2021/06/21 05:22:20;;;;;;;8.30;3.95;;;;;;;17.46;84.02;94256.06;1576782;88;21052;-58
2021/06/21 05:24:47;;;;;;;5.42;3.27;;;;;;;17.50;83.74;94248.23;1594807;89;21043;-56
2021/06/21 05:27:14;;;;;;;7.67;3.67;;;;;;;17.50;83.94;94252.41;1592060;89;21100;-58
2021/06/21 05:29:40;;;;;;;6.58;3.70;;;;;;;17.51;83.78;94248.35;1588981;89;21530;-56
2021/06/21 05:32:09;;;;;;;3.40;3.10;;;;;;;17.56;83.63;94249.77;1591265;89;21798;-57
2021/06/21 05:34:36;;;;;;;3.77;3.17;;;;;;;17.63;83.07;94245.72;1597011;88;21035;-58
2021/06/21 05:37:04;;;;;;;4.72;4.25;;;;;;;17.64;82.54;94248.63;1600455;88;21127;-57
2021/06/21 05:39:30;;;;;;;7.80;5.47;;;;;;;17.65;82.74;94241.80;1571189;89;20997;-57
2021/06/21 05:41:57;;;;;;;16.40;14.68;;;;;;;17.71;82.92;94240.55;1589445;89;21093;-56
2021/06/21 05:44:24;;;;;;;6.30;5.65;;;;;;;17.83;82.41;94242.05;1586495;89;23178;-56
2021/06/21 05:46:51;;;;;;;9.15;6.60;;;;;;;17.93;82.50;94250.91;1599834;89;20988;-57
2021/06/21 05:49:18;;;;;;;4.10;3.70;;;;;;;17.98;82.43;94247.39;1600131;89;21107;-58
2021/06/21 05:51:45;;;;;;;3.85;2.85;;;;;;;18.02;81.62;94243.70;1599662;89;21057;-58
2021/06/21 05:54:11;;;;;;;6.25;3.60;;;;;;;18.02;81.02;94242.31;1595441;89;21045;-58
2021/06/21 05:56:38;;;;;;;4.45;2.72;;;;;;;18.02;81.01;94240.92;1595660;89;21885;-57
2021/06/21 05:59:05;;;;;;;20.48;3.92;;;;;;;18.01;80.29;94241.55;1596493;89;21032;-57
2021/06/21 06:01:33;;;;;;;5.42;3.33;;;;;;;17.94;80.30;94232.33;1590534;88;21025;-57
2021/06/21 06:04:00;;;;;;;7.90;2.90;;;;;;;17.92;80.17;94236.25;1555346;88;21146;-55
2021/06/21 06:06:26;;;;;;;7.78;5.70;;;;;;;17.90;80.54;94232.44;1583089;89;21035;-58
2021/06/21 06:08:53;;;;;;;8.33;3.08;;;;;;;17.93;80.34;94228.02;1590462;89;21070;-57
2021/06/21 06:11:20;;;;;;;6.25;3.08;;;;;;;17.87;80.61;94233.46;1570810;89;21120;-58
2021/06/21 06:13:47;;;;;;;4.15;2.85;;;;;;;17.83;80.80;94238.52;1584639;88;21092;-57
2021/06/21 06:16:14;;;;;;;2.58;2.30;;;;;;;17.76;80.57;94236.23;1595699;88;21541;-57
2021/06/21 06:18:44;;;;;;;15.28;4.20;;;;;;;17.79;80.36;94236.63;1591521;89;21082;-57
2021/06/21 06:21:17;;;;;;;7.15;3.10;;;;;;;17.85;80.55;94235.99;1599703;89;21539;-57
2021/06/21 06:23:45;;;;;;;7.15;2.67;;;;;;;17.91;80.46;94239.52;1552102;89;21512;-58
2021/06/21 06:26:12;;;;;;;5.85;2.80;;;;;;;17.99;79.86;94234.98;1605655;89;21616;-60
2021/06/21 06:28:39;;;;;;;4.12;2.35;;;;;;;18.07;79.68;94228.40;1605979;89;21230;-59
2021/06/21 06:31:07;;;;;;;6.62;3.27;;;;;;;18.24;79.31;94231.27;1606643;89;44897;-58
2021/06/21 06:33:34;;;;;;;2.95;2.70;;;;;;;18.46;79.32;94230.52;1598635;89;21146;-57
2021/06/21 06:36:01;;;;;;;3.33;2.90;;;;;;;18.64;78.90;94227.91;1591330;89;20977;-58
2021/06/21 06:38:28;;;;;;;4.22;2.45;;;;;;;18.84;79.36;94229.63;1569288;89;20980;-57
2021/06/21 06:40:55;;;;;;;7.12;2.95;;;;;;;19.00;78.99;94230.20;1603659;89;21048;-57
2021/06/21 06:43:22;;;;;;;6.42;3.60;;;;;;;19.16;78.05;94225.19;1589577;89;21041;-58
2021/06/21 06:45:50;;;;;;;2.80;2.60;;;;;;;19.32;78.67;94223.72;1587951;89;21022;-59
2021/06/21 06:48:17;;;;;;;4.15;2.42;;;;;;;19.53;78.55;94228.30;1588473;90;21029;-58
2021/06/21 06:50:44;;;;;;;4.35;2.72;;;;;;;19.75;77.78;94228.14;1588765;89;21127;-58
2021/06/21 06:53:10;;;;;;;7.12;2.55;;;;;;;19.92;76.97;94226.72;1605498;89;21048;-57
2021/06/21 06:58:23;;;;;;;5.30;2.92;;;;;;;20.14;76.03;94233.54;1583914;89;21855;-58
2021/06/21 07:00:50;;;;;;;5.50;2.77;;;;;;;20.11;75.27;94229.00;1569456;89;21037;-59
2021/06/21 07:03:17;;;;;;;4.67;2.80;;;;;;;20.12;75.20;94233.31;1587423;89;21021;-58
2021/06/21 07:05:44;;;;;;;2.55;2.35;;;;;;;20.20;74.96;94234.27;1597244;89;21084;-56
2021/06/21 07:08:10;;;;;;;4.78;2.47;;;;;;;20.27;74.73;94236.48;1601654;88;21218;-58
2021/06/21 07:10:37;;;;;;;5.65;2.87;;;;;;;20.32;75.01;94234.27;1596264;89;21081;-58
2021/06/21 07:13:06;;;;;;;6.78;3.42;;;;;;;20.38;75.39;94236.39;1602224;89;21084;-57
2021/06/21 07:15:32;;;;;;;4.58;3.33;;;;;;;20.46;75.32;94231.09;1604689;89;21476;-58
2021/06/21 07:18:00;;;;;;;4.08;3.33;;;;;;;20.56;75.13;94223.13;1598567;89;21125;-57
2021/06/21 07:20:28;;;;;;;5.97;3.02;;;;;;;20.55;74.87;94231.39;1595173;88;21023;-58
2021/06/21 07:22:55;;;;;;;6.80;3.20;;;;;;;20.52;75.02;94232.45;1597912;89;21973;-58
2021/06/21 07:25:21;;;;;;;15.80;3.22;;;;;;;20.54;75.20;94241.80;1598112;89;22397;-60
2021/06/21 07:27:49;;;;;;;5.40;3.65;;;;;;;20.57;74.82;94240.75;1582930;89;21025;-59
2021/06/21 07:30:18;;;;;;;8.83;2.90;;;;;;;20.67;75.06;94236.97;1584949;89;21029;-60
2021/06/21 07:32:45;;;;;;;5.70;3.15;;;;;;;20.80;74.65;94235.69;1590114;89;21042;-61
2021/06/21 07:35:13;;;;;;;3.67;3.27;;;;;;;20.94;74.04;94235.28;1592687;90;21157;-58
2021/06/21 07:37:40;;;;;;;4.30;3.52;;;;;;;21.06;74.24;94232.48;1590634;89;21055;-58
2021/06/21 07:40:08;;;;;;;12.33;3.98;;;;;;;21.16;73.68;94227.28;1579997;89;21014;-58
2021/06/21 07:42:35;;;;;;;7.75;3.83;;;;;;;21.19;72.99;94226.22;1552014;91;21073;-61
2021/06/21 07:45:04;;;;;;;6.03;3.58;;;;;;;21.29;73.35;94234.36;1598847;89;20997;-59
2021/06/21 07:47:31;;;;;;;4.20;3.12;;;;;;;21.35;73.20;94234.41;1597269;89;21170;-59
2021/06/21 07:49:58;;;;;;;10.50;3.67;;;;;;;21.33;73.66;94232.02;1587847;89;21274;-58
2021/06/21 07:52:25;;;;;;;4.45;3.77;;;;;;;21.32;72.91;94229.10;1601632;89;21079;-58
2021/06/21 07:54:52;;;;;;;4.22;3.33;;;;;;;21.41;73.49;94235.08;1606505;89;21595;-59
2021/06/21 07:57:20;;;;;;;7.05;3.65;;;;;;;21.52;72.29;94229.34;1605505;89;21008;-59
2021/06/21 07:59:47;;;;;;;5.83;2.83;;;;;;;21.56;71.98;94224.81;1592487;89;21599;-57
2021/06/21 08:02:13;;;;;;;5.30;3.47;;;;;;;21.54;71.22;94224.59;1586417;89;21088;-59
2021/06/21 08:04:41;;;;;;;8.23;3.35;;;;;;;21.45;71.55;94230.59;1587107;89;21135;-58
2021/06/21 08:07:07;;;;;;;7.70;3.47;;;;;;;21.39;71.99;94234.09;1589153;89;21112;-58
2021/06/21 08:09:34;;;;;;;6.17;3.65;;;;;;;21.42;72.86;94242.81;1590661;89;21564;-56
2021/06/21 08:12:02;;;;;;;10.50;5.70;;;;;;;21.46;72.78;94231.44;1593554;89;21505;-58
2021/06/21 08:14:29;;;;;;;4.85;3.20;;;;;;;21.57;71.78;94229.13;1591839;88;21044;-61
2021/06/21 08:16:56;;;;;;;8.70;3.20;;;;;;;21.68;70.94;94232.55;1591182;89;21084;-58
2021/06/21 08:19:23;;;;;;;3.55;3.10;;;;;;;21.79;70.44;94231.63;1566636;89;21648;-58
2021/06/21 08:21:49;;;;;;;9.83;4.15;;;;;;;21.94;70.95;94227.70;1588448;89;21152;-62
2021/06/21 08:24:17;;;;;;;8.20;3.60;;;;;;;22.03;70.24;94219.03;1593121;89;21162;-59
2021/06/21 08:26:44;;;;;;;11.88;3.62;;;;;;;22.15;69.74;94225.95;1603989;88;21097;-62
2021/06/21 08:29:11;;;;;;;10.45;3.20;;;;;;;22.25;69.73;94222.86;1587506;89;21083;-58
2021/06/21 08:31:38;;;;;;;6.50;3.25;;;;;;;22.36;69.63;94218.47;1599016;88;21057;-58
2021/06/21 08:34:04;;;;;;;12.28;4.08;;;;;;;22.43;68.88;94217.86;1607469;89;21134;-59
2021/06/21 08:36:32;;;;;;;12.73;3.25;;;;;;;22.46;69.21;94219.59;1599050;89;21300;-56
2021/06/21 08:38:59;;;;;;;5.60;3.58;;;;;;;22.56;69.38;94219.29;1593010;88;20985;-58
2021/06/21 08:41:26;;;;;;;8.75;3.12;;;;;;;22.63;68.97;94219.30;1594218;89;21056;-56
2021/06/21 08:43:52;;;;;;;10.28;3.40;;;;;;;22.65;68.59;94221.66;1587455;89;21057;-57
2021/06/21 08:46:19;;;;;;;9.10;3.58;;;;;;;22.69;67.28;94219.95;1585341;89;21055;-57
2021/06/21 08:48:48;;;;;;;12.13;3.52;;;;;;;22.70;67.68;94213.78;1587728;89;22462;-57
2021/06/21 08:51:15;;;;;;;5.17;3.20;;;;;;;22.79;68.32;94216.17;1595872;89;21075;-58
2021/06/21 08:53:42;;;;;;;8.75;3.45;;;;;;;22.96;67.24;94213.80;1600698;89;21496;-58
2021/06/21 08:56:10;;;;;;;10.58;4.05;;;;;;;23.04;65.94;94209.03;1596994;89;21004;-59
2021/06/21 08:58:39;;;;;;;7.15;3.35;;;;;;;23.06;66.07;94206.44;1516292;92;21147;-58
2021/06/21 09:01:07;;;;;;;10.10;3.87;;;;;;;23.10;65.72;94205.48;1594400;89;21815;-59
2021/06/21 09:03:34;;;;;;;14.65;4.03;;;;;;;23.17;65.86;94201.30;1570230;89;21036;-57
2021/06/21 09:06:01;;;;;;;12.37;3.40;;;;;;;23.27;66.57;94208.73;1592255;89;21064;-58
2021/06/21 09:08:29;;;;;;;11.93;3.60;;;;;;;23.44;65.77;94205.56;1574610;90;21014;-58
2021/06/21 09:10:56;;;;;;;13.18;3.58;;;;;;;23.59;66.52;94210.69;1563043;90;21099;-58
2021/06/21 09:13:25;;;;;;;12.68;3.60;;;;;;;23.75;67.53;94208.16;1588762;89;21254;-58
2021/06/21 09:15:53;;;;;;;9.10;3.62;;;;;;;23.93;67.45;94210.06;1546068;88;21064;-56
2021/06/21 09:18:35;;;;;;;12.43;3.25;;;;;;;24.05;66.84;94205.03;1595326;88;21603;-57
2021/06/21 09:21:30;;;;;;;13.18;3.15;;;;;;;24.04;64.61;94204.20;1587876;89;21551;-56
2021/06/21 09:23:58;;;;;;;9.55;3.17;;;;;;;23.98;65.45;94200.11;1603611;88;21548;-57
2021/06/21 09:26:31;;;;;;;9.08;3.25;;;;;;;23.96;64.39;94200.54;1587475;89;21530;-57
2021/06/21 09:29:01;;;;;;;12.13;3.77;;;;;;;23.95;63.17;94193.41;1593710;88;20992;-57
2021/06/21 09:31:28;;;;;;;13.95;4.40;;;;;;;23.99;64.70;94193.84;1605823;89;21141;-58
2021/06/21 09:34:15;;;;;;;13.35;4.17;;;;;;;24.13;66.04;94192.45;1599984;88;21032;-58
2021/06/21 09:36:42;;;;;;;11.65;3.72;;;;;;;24.33;66.65;94193.10;1604224;88;21124;-58
2021/06/21 09:39:24;;;;;;;14.20;3.40;;;;;;;24.56;62.60;94201.13;1591998;88;21424;-58
2021/06/21 09:42:20;;;;;;;17.15;4.20;;;;;;;24.70;62.43;94192.67;1593673;88;21139;-59
2021/06/21 09:44:56;;;;;;;14.87;3.85;;;;;;;24.79;62.34;94190.77;1600630;88;21079;-59
2021/06/21 09:47:37;;;;;;;8.23;3.58;;;;;;;24.86;62.04;94194.28;1591933;89;21005;-59
2021/06/21 09:50:24;;;;;;;16.42;3.60;;;;;;;24.96;63.87;94188.26;1588866;89;21552;-59
2021/06/21 09:53:02;;;;;;;11.55;3.20;;;;;;;25.09;61.43;94181.11;1574644;89;21347;-62
2021/06/21 09:55:39;;;;;;;12.63;3.50;;;;;;;25.25;61.77;94193.33;1593142;89;20992;-58
2021/06/21 09:58:18;;;;;;;14.33;3.50;;;;;;;25.45;62.91;94191.06;1607084;88;21044;-56
2021/06/21 10:00:52;;;;;;;20.82;4.95;;;;;;;25.63;62.00;94190.67;1608961;89;21507;-58
2021/06/21 10:03:22;;;;;;;23.47;4.83;;;;;;;25.83;60.90;94181.34;1600011;88;21148;-57
2021/06/21 10:06:10;;;;;;;13.08;3.80;;;;;;;25.95;59.69;94184.01;1605701;89;21214;-57
2021/06/21 10:08:53;;;;;;;16.95;3.72;;;;;;;26.08;61.70;94182.44;1588944;88;21025;-60
2021/06/21 10:11:40;;;;;;;14.90;4.15;;;;;;;26.18;58.23;94177.77;1606709;88;21008;-58
2021/06/21 10:14:11;;;;;;;15.75;3.65;;;;;;;26.21;55.93;94174.46;1599567;89;21040;-58
2021/06/21 10:16:38;;;;;;;9.33;2.98;;;;;;;26.21;58.86;94180.88;1594916;89;21191;-58
2021/06/21 10:19:05;;;;;;;11.85;3.20;;;;;;;26.29;58.62;94182.29;1591268;89;21151;-58
2021/06/21 10:21:38;;;;;;;14.38;3.27;;;;;;;26.39;57.36;94175.52;1593928;89;21168;-58
2021/06/21 10:24:06;;;;;;;6.80;2.85;;;;;;;26.49;55.38;94176.48;1602155;89;21031;-58
2021/06/21 10:26:33;;;;;;;19.00;3.87;;;;;;;26.54;55.99;94169.91;1592383;89;21061;-59
2021/06/21 10:29:00;;;;;;;19.25;3.58;;;;;;;26.49;55.58;94168.02;1601904;88;21157;-58
2021/06/21 10:31:29;;;;;;;11.48;3.55;;;;;;;26.55;57.59;94164.36;1601460;88;21190;-57
2021/06/21 10:34:00;;;;;;;20.55;3.62;;;;;;;26.70;57.43;94168.55;1601247;89;21031;-59
2021/06/21 10:36:47;;;;;;;8.13;2.65;;;;;;;26.79;55.98;94160.94;1596921;88;20993;-58
2021/06/21 10:39:20;;;;;;;11.00;3.65;;;;;;;26.92;56.24;94155.09;1589262;88;21117;-60
2021/06/21 10:42:10;;;;;;;13.40;3.27;;;;;;;26.91;55.38;94158.47;1591873;89;21635;-57
2021/06/21 10:44:58;;;;;;;9.85;3.42;;;;;;;26.84;54.67;94152.92;1596311;89;21324;-60
2021/06/21 10:47:34;;;;;;;9.60;3.10;;;;;;;26.72;54.55;94157.48;1592077;89;21160;-61
2021/06/21 10:50:09;;;;;;;9.15;3.15;;;;;;;26.55;54.80;94160.13;1601833;88;21238;-58
2021/06/21 10:52:52;;;;;;;10.15;2.72;;;;;;;26.71;54.84;94154.53;1532028;92;21098;-59
2021/06/21 10:55:35;;;;;;;17.15;3.58;;;;;;;26.71;54.22;94154.53;1589981;89;21059;-58
2021/06/21 10:58:26;;;;;;;21.15;4.28;;;;;;;27.21;53.57;94145.72;1589205;89;21783;-60
2021/06/21 11:00:54;;;;;;;14.65;4.05;;;;;;;27.72;53.45;94148.24;1588495;89;21028;-59
2021/06/21 11:03:29;;;;;;;13.48;2.90;;;;;;;28.29;52.68;94144.76;1590635;89;21171;-57
2021/06/21 11:06:26;;;;;;;12.88;4.05;;;;;;;28.81;52.78;94152.09;1593458;89;20989;-58
2021/06/21 11:08:57;;;;;;;16.52;3.42;;;;;;;29.20;49.29;94141.23;1590426;89;21461;-58
2021/06/21 11:11:41;;;;;;;16.85;3.00;;;;;;;29.50;46.72;94140.91;1601991;89;21940;-58
2021/06/21 11:14:25;;;;;;;22.52;14.00;;;;;;;29.65;46.74;94141.46;1591195;88;21045;-59
2021/06/21 11:17:23;;;;;;;14.23;4.40;;;;;;;29.88;47.18;94138.41;1594194;89;21136;-59
2021/06/21 11:19:50;;;;;;;12.98;2.83;;;;;;;29.86;47.64;94135.34;1592122;88;21272;-58
2021/06/21 11:22:17;;;;;;;12.88;2.75;;;;;;;29.95;47.52;94143.91;1599910;88;21079;-58
2021/06/21 11:24:46;;;;;;;9.73;2.72;;;;;;;30.08;46.87;94133.61;1597507;89;21177;-58
2021/06/21 11:27:16;;;;;;;13.03;2.75;;;;;;;30.27;47.60;94134.45;1594961;89;20981;-59
2021/06/21 11:29:58;;;;;;;15.90;3.47;;;;;;;30.45;47.37;94134.45;1600256;88;21091;-59
2021/06/21 11:32:25;;;;;;;17.95;3.30;;;;;;;30.77;46.98;94130.54;1594408;89;21180;-59
2021/06/21 11:35:00;;;;;;;15.20;3.17;;;;;;;30.83;45.55;94137.44;1595244;89;21143;-60
2021/06/21 11:37:47;;;;;;;11.38;2.72;;;;;;;31.20;43.60;94131.03;1597604;88;21190;-57
2021/06/21 11:40:22;;;;;;;9.48;2.52;;;;;;;31.60;44.63;94131.17;1602088;89;21065;-59
2021/06/21 11:43:03;;;;;;;17.82;3.17;;;;;;;32.06;42.12;94128.94;1592416;88;21289;-57
2021/06/21 11:45:54;;;;;;;9.95;2.50;;;;;;;32.51;40.61;94127.16;1592205;89;21473;-58
2021/06/21 11:48:35;;;;;;;15.05;2.70;;;;;;;32.88;41.53;94118.38;1591521;89;21069;-58